Time;durP1;ratioP1;P1;durP2;ratioP2;P2;SDS_P1;SDS_P2;PMS_P1;PMS_P2;Temp;Humidity;BMP_temperature;BMP_pressure;BME280_temperature;BME280_humidity;BME280_pressure;Samples;Min_cycle;Max_cycle;Signal;HPM_P1;HPM_P2
2021/11/23 11:41:36;;;;;;;19.17;14.00;;;;;;;3.31;100.00;100979.66;20858436;27;1824693;-54
2021/11/23 11:51:43;;;;;;;14.63;12.67;;;;;;;3.29;100.00;100984.09;20891553;28;20218;-54
2021/11/23 12:01:56;;;;;;;17.13;12.67;;;;;;;3.41;100.00;100970.63;20892013;28;20227;-57
2021/11/23 12:22:04;;;;;;;17.57;14.27;;;;;;;3.55;100.00;100992.25;20990817;27;20616;-58
2021/11/23 12:52:12;;;;;;;16.47;13.53;;;;;;;3.61;100.00;101037.00;21216433;27;20539;-59
2021/11/23 13:02:35;;;;;;;15.53;13.93;;;;;;;3.59;100.00;101044.94;21142610;28;20217;-65
2021/11/23 13:32:32;;;;;;;15.77;13.23;;;;;;;3.78;100.00;101071.75;21005084;27;1445326;-54
2021/11/23 13:42:36;;;;;;;13.67;12.03;;;;;;;3.91;100.00;101081.09;21048065;28;20221;-54
2021/11/23 13:52:39;;;;;;;13.70;12.17;;;;;;;3.97;100.00;101086.25;21039243;28;20232;-55
2021/11/23 14:12:44;;;;;;;13.90;12.50;;;;;;;3.99;100.00;101084.41;20841750;27;21267;-57
2021/11/23 14:22:47;;;;;;;14.47;13.00;;;;;;;4.07;100.00;101096.56;20833166;28;20362;-58
2021/11/23 14:32:53;;;;;;;14.07;12.57;;;;;;;4.15;100.00;101094.59;20836982;28;20931;-54
2021/11/23 14:42:57;;;;;;;14.13;12.70;;;;;;;4.23;100.00;101108.47;20838356;28;20227;-53
2021/11/23 14:53:01;;;;;;;15.03;13.43;;;;;;;4.30;100.00;101110.06;20835655;28;20243;-53
2021/11/23 15:03:07;;;;;;;25.67;18.47;;;;;;;4.35;100.00;101113.41;20839379;28;20321;-54
2021/11/23 15:13:11;;;;;;;34.63;25.20;;;;;;;4.34;100.00;101117.00;20837535;28;20231;-53
2021/11/23 15:23:15;;;;;;;39.07;27.07;;;;;;;4.28;100.00;101120.66;20779849;28;20537;-52
2021/11/23 15:33:18;;;;;;;27.27;22.53;;;;;;;4.16;100.00;101117.47;20774552;28;20561;-53
2021/11/23 15:43:22;;;;;;;21.03;17.47;;;;;;;3.81;100.00;101119.19;20768900;28;20585;-64
2021/11/23 15:53:25;;;;;;;28.83;21.33;;;;;;;3.59;100.00;101117.97;20772344;28;20294;-66
2021/11/23 16:13:25;;;;;;;31.27;22.30;;;;;;;2.95;100.00;101140.44;20926894;27;20671;-62
2021/11/23 16:23:28;;;;;;;36.73;23.43;;;;;;;2.85;100.00;101152.06;20913568;28;20308;-63
2021/11/23 16:33:34;;;;;;;39.60;25.27;;;;;;;2.85;100.00;101163.47;20913380;28;20237;-56
2021/11/23 16:43:39;;;;;;;37.33;25.13;;;;;;;2.90;100.00;101171.28;20911330;28;20227;-54
2021/11/23 17:03:40;;;;;;;42.60;27.93;;;;;;;2.76;100.00;101181.22;21078321;27;20523;-55
2021/11/23 19:43:07;;;;;;;44.37;26.83;;;;;;;3.79;100.00;101213.41;20788797;28;20312;-59
2021/11/23 19:53:11;;;;;;;45.70;26.27;;;;;;;3.94;100.00;101234.19;20707688;28;20247;-59
2021/11/23 20:03:15;;;;;;;48.47;30.67;;;;;;;4.07;100.00;101244.47;20693660;28;20248;-63
2021/11/23 20:23:14;;;;;;;47.17;27.03;;;;;;;4.38;100.00;101250.75;20980784;27;20662;-60
2021/11/23 20:33:18;;;;;;;48.37;27.43;;;;;;;4.48;100.00;101261.97;20977008;28;20606;-63
2021/11/23 20:43:22;;;;;;;40.30;25.87;;;;;;;4.55;100.00;101258.28;20969932;28;20304;-64
2021/11/23 20:53:25;;;;;;;42.37;26.93;;;;;;;4.69;100.00;101251.75;20968663;28;20226;-58
2021/11/23 21:53:12;;;;;;;46.57;30.97;;;;;;;5.12;100.00;101237.41;20890609;28;20991;-67
2021/11/23 22:23:09;;;;;;;41.33;27.40;;;;;;;5.27;100.00;101233.47;21057371;27;20552;-66
2021/11/23 22:43:09;;;;;;;48.83;30.13;;;;;;;5.31;100.00;101245.72;21192385;27;20599;-67
2021/11/23 22:53:14;;;;;;;45.33;29.47;;;;;;;5.31;100.00;101235.13;21207507;27;20326;-64
2021/11/23 23:13:14;;;;;;;49.73;30.93;;;;;;;5.33;100.00;101223.56;21198750;27;21070;-62
2021/11/23 23:23:18;;;;;;;54.80;33.40;;;;;;;5.41;100.00;101226.88;21220733;27;20316;-63
2021/11/23 23:33:24;;;;;;;55.40;32.53;;;;;;;5.37;100.00;101219.94;21224467;27;20233;-64
2021/11/23 23:43:27;;;;;;;46.40;31.13;;;;;;;5.43;100.00;101219.75;21205578;27;20232;-65
2021/11/23 23:53:31;;;;;;;45.63;29.77;;;;;;;5.44;100.00;101229.41;21222959;27;20237;-64
